Time;durP1;ratioP1;P1;durP2;ratioP2;P2;SDS_P1;SDS_P2;PMS_P1;PMS_P2;Temp;Humidity;BMP_temperature;BMP_pressure;BME280_temperature;BME280_humidity;BME280_pressure;Samples;Min_cycle;Max_cycle;Signal;HPM_P1;HPM_P2
2022/07/17 00:01:49;;;;;;;5.50;3.83;;;;;;;23.04;63.63;95107.34;4962663;28;20201;-84
2022/07/17 00:04:22;;;;;;;7.15;3.33;;;;;;;22.81;63.58;95073.69;4973482;28;20220;-83
2022/07/17 00:06:51;;;;;;;6.03;3.85;;;;;;;22.82;62.85;95088.53;4974079;28;20588;-82
2022/07/17 00:09:31;;;;;;;4.88;3.25;;;;;;;22.90;62.38;95096.66;4967304;28;20205;-82
2022/07/17 00:12:12;;;;;;;7.45;3.38;;;;;;;23.00;62.32;95128.31;4961366;28;20283;-83
2022/07/17 00:14:49;;;;;;;4.80;3.38;;;;;;;22.60;63.42;95089.00;4970766;28;20235;-84
2022/07/17 00:17:25;;;;;;;4.10;3.53;;;;;;;22.85;63.56;95122.44;4962735;28;20284;-84
2022/07/17 00:20:12;;;;;;;7.18;3.65;;;;;;;22.50;63.54;95079.31;4973437;28;20657;-84
2022/07/17 00:22:46;;;;;;;6.25;3.75;;;;;;;22.66;63.43;95103.03;4955507;28;20301;-82
2022/07/17 00:25:28;;;;;;;10.00;3.25;;;;;;;22.42;64.16;95090.50;4958089;28;20664;-82
2022/07/17 00:28:04;;;;;;;5.85;3.35;;;;;;;22.35;65.45;95097.22;4958941;28;20208;-82
2022/07/17 00:30:52;;;;;;;4.47;3.55;;;;;;;22.23;65.28;95089.66;4954589;28;20592;-83
2022/07/17 00:33:25;;;;;;;4.95;3.20;;;;;;;22.23;65.47;95094.97;4963164;28;20208;-81
2022/07/17 00:36:04;;;;;;;6.70;3.53;;;;;;;22.24;65.47;95096.53;4971448;28;20208;-82
2022/07/17 00:38:48;;;;;;;5.82;3.63;;;;;;;22.27;65.60;95088.03;4971438;28;20204;-81
2022/07/17 00:41:21;;;;;;;4.80;3.63;;;;;;;22.43;64.65;95129.19;4967058;28;20200;-81
2022/07/17 00:44:09;;;;;;;6.72;3.63;;;;;;;22.24;65.13;95117.72;4967314;28;20652;-84
2022/07/17 00:46:45;;;;;;;5.03;3.67;;;;;;;22.21;64.85;95113.00;4970459;28;20233;-83
2022/07/17 00:49:32;;;;;;;5.90;3.67;;;;;;;22.38;64.51;95123.97;4966682;28;20222;-83
2022/07/17 00:52:29;;;;;;;4.40;4.00;;;;;;;22.22;64.90;95114.56;4960252;28;20201;-84
2022/07/17 00:55:05;;;;;;;10.40;4.03;;;;;;;22.11;65.12;95112.31;4906520;28;20673;-84
2022/07/17 00:57:47;;;;;;;6.25;3.78;;;;;;;21.97;65.57;95088.31;4958147;28;20652;-85
2022/07/17 01:00:18;;;;;;;8.63;4.18;;;;;;;22.31;65.42;95138.59;4966348;28;20201;-84
2022/07/17 01:03:12;;;;;;;17.38;4.15;;;;;;;22.40;64.96;95135.06;4960566;28;20260;-87
2022/07/17 01:06:06;;;;;;;6.82;3.83;;;;;;;22.49;64.92;95138.69;4972662;28;20254;-86
2022/07/17 01:08:43;;;;;;;6.93;3.60;;;;;;;22.01;64.50;95095.44;4954930;28;20205;-86
2022/07/17 01:11:33;;;;;;;9.60;4.20;;;;;;;22.05;64.92;95122.91;4966346;28;20200;-83
2022/07/17 01:14:07;;;;;;;8.32;4.05;;;;;;;21.94;65.16;95113.47;4959431;28;20213;-84
2022/07/17 01:16:40;;;;;;;7.50;3.85;;;;;;;22.11;64.54;95136.13;4966242;28;20207;-83
2022/07/17 01:19:12;;;;;;;5.07;3.75;;;;;;;21.90;64.53;95106.38;4966160;28;20207;-83
2022/07/17 01:21:46;;;;;;;6.80;3.80;;;;;;;22.09;64.65;95143.56;4965593;28;20217;-84
2022/07/17 01:24:22;;;;;;;8.45;3.80;;;;;;;22.01;64.33;95121.13;4959381;28;20287;-83
2022/07/17 01:27:00;;;;;;;;;;;;;;;;;;;;;
2022/07/17 01:32:10;;;;;;;10.00;3.45;;;;;;;21.80;64.10;95107.22;4969313;28;20213;-81
2022/07/17 01:34:51;;;;;;;;;;;;;;;;;;;;;
2022/07/17 01:37:24;;;;;;;4.50;3.38;;;;;;;22.04;64.52;95137.25;4960179;28;20695;-82
2022/07/17 01:39:59;;;;;;;4.40;3.47;;;;;;;22.06;64.68;95139.59;4965592;28;20201;-82
2022/07/17 01:42:42;;;;;;;5.43;3.70;;;;;;;21.89;63.92;95113.53;4965549;28;20287;-80
2022/07/17 01:45:13;;;;;;;4.35;3.58;;;;;;;22.08;63.91;95140.09;4971763;28;20225;-80
2022/07/17 01:47:46;;;;;;;8.82;4.15;;;;;;;21.81;63.98;95100.06;4967237;28;20212;-81
2022/07/17 01:50:22;;;;;;;6.95;3.17;;;;;;;22.01;63.99;95129.06;4966708;28;20201;-81
2022/07/17 01:52:57;;;;;;;6.07;3.50;;;;;;;21.76;64.57;95097.47;4960073;28;20213;-81
2022/07/17 01:55:31;;;;;;;6.47;3.70;;;;;;;21.81;64.68;95118.59;4959812;28;20204;-82
2022/07/17 01:58:01;;;;;;;8.82;3.85;;;;;;;;;;4967891;28;20204;-80
2022/07/17 02:00:31;;;;;;;12.05;4.05;;;;;;;21.89;65.40;95131.25;4963761;28;20205;-81
2022/07/17 02:03:00;;;;;;;6.07;3.83;;;;;;;21.93;65.46;95146.31;4968687;28;20235;-80
2022/07/17 02:05:33;;;;;;;7.63;4.00;;;;;;;21.88;65.88;95143.72;4960484;28;20277;-80
2022/07/17 02:08:05;;;;;;;6.22;3.60;;;;;;;21.73;65.01;95113.91;4955405;28;20324;-81
2022/07/17 02:10:41;;;;;;;9.48;3.70;;;;;;;21.76;65.74;95134.53;4962517;28;20212;-82
2022/07/17 02:13:12;;;;;;;5.68;3.63;;;;;;;21.45;66.60;95124.13;4964722;28;20235;-81
2022/07/17 02:15:40;;;;;;;6.57;3.42;;;;;;;21.56;66.72;95143.34;4959582;28;20237;-82
2022/07/17 02:18:07;;;;;;;5.72;3.33;;;;;;;21.51;65.64;95119.59;4970385;28;20240;-80
2022/07/17 02:20:34;;;;;;;4.15;3.35;;;;;;;21.59;65.58;95144.69;4967934;28;20209;-80
2022/07/17 02:23:03;;;;;;;11.27;4.20;;;;;;;21.66;65.72;95145.16;4964496;28;20200;-80
2022/07/17 02:25:34;;;;;;;4.85;3.55;;;;;;;21.65;65.43;95144.38;4966542;28;20715;-81
2022/07/17 02:28:20;;;;;;;5.53;3.40;;;;;;;21.55;65.18;95131.22;4964645;28;20671;-80
2022/07/17 02:31:05;;;;;;;4.30;3.60;;;;;;;21.60;65.18;95143.59;4959448;28;20233;-80
2022/07/17 02:33:46;;;;;;;3.88;3.38;;;;;;;21.63;66.05;95143.84;4971965;28;20204;-81
2022/07/17 02:36:21;;;;;;;7.35;3.78;;;;;;;21.51;65.76;95124.88;4972266;28;20593;-85
2022/07/17 02:39:07;;;;;;;11.23;3.55;;;;;;;21.27;65.64;95086.97;4972483;28;20212;-84
2022/07/17 02:41:45;;;;;;;11.38;3.58;;;;;;;21.67;65.51;95147.53;4959143;28;20668;-86
2022/07/17 02:44:19;;;;;;;6.65;3.80;;;;;;;21.72;67.05;95154.66;4972193;28;20616;-80
2022/07/17 02:46:55;;;;;;;4.10;3.60;;;;;;;21.54;68.84;95120.88;4975663;28;20264;-84
2022/07/17 02:49:27;;;;;;;5.40;3.72;;;;;;;21.71;68.97;95150.41;4962330;28;20670;-82
2022/07/17 02:52:03;;;;;;;5.18;4.05;;;;;;;21.68;68.98;95161.53;4962552;28;20212;-82
2022/07/17 02:55:05;;;;;;;5.60;4.07;;;;;;;21.35;67.32;95108.31;4956412;29;20233;-83
2022/07/17 02:57:47;;;;;;;8.15;4.60;;;;;;;21.65;67.33;95156.81;4967949;28;20259;-83
2022/07/17 03:00:30;;;;;;;;;;;;;;;;;;;;;
2022/07/17 03:03:24;;;;;;;8.90;4.68;;;;;;;21.54;66.88;95161.38;4969982;28;20208;-85
2022/07/17 03:05:55;;;;;;;7.90;4.55;;;;;;;21.52;66.21;95160.88;4976155;28;20228;-82
2022/07/17 03:08:36;;;;;;;8.00;5.05;;;;;;;21.49;67.65;95164.06;4956566;29;20633;-83
2022/07/17 03:11:41;;;;;;;5.72;4.70;;;;;;;21.48;68.16;95171.19;4956268;29;20201;-82
2022/07/17 03:14:24;;;;;;;8.45;4.65;;;;;;;21.47;68.52;95169.59;4957638;28;20279;-86
2022/07/17 03:16:56;;;;;;;6.35;4.30;;;;;;;21.31;66.44;95148.78;4957678;28;20241;-86
2022/07/17 03:19:34;;;;;;;6.10;3.95;;;;;;;21.35;64.89;95160.44;4966984;28;20202;-86
2022/07/17 03:22:10;;;;;;;9.50;4.38;;;;;;;21.16;65.90;95140.94;4965417;28;20212;-84
2022/07/17 03:24:56;;;;;;;5.20;4.60;;;;;;;21.06;68.66;95131.19;4961268;28;20224;-84
2022/07/17 03:27:33;;;;;;;9.85;4.70;;;;;;;21.16;67.31;95154.94;4955543;28;20244;-83
2022/07/17 03:32:56;;;;;;;9.30;4.45;;;;;;;21.20;70.51;95171.88;4973014;28;20204;-82
2022/07/17 03:35:38;;;;;;;11.35;4.70;;;;;;;21.15;71.56;95168.44;4969536;28;20839;-82
2022/07/17 03:41:32;;;;;;;11.35;4.90;;;;;;;21.25;71.45;95206.22;4941703;28;20207;-82
2022/07/17 03:44:10;;;;;;;7.93;4.38;;;;;;;21.26;68.03;95202.53;4974048;28;20276;-83
2022/07/17 03:46:43;;;;;;;7.22;4.55;;;;;;;21.24;67.75;95195.91;4964319;28;20250;-81
2022/07/17 03:49:11;;;;;;;9.25;4.55;;;;;;;21.21;67.86;95191.94;4955395;28;20209;-81
2022/07/17 03:51:52;;;;;;;10.02;5.15;;;;;;;21.16;69.14;95184.03;4965978;28;20204;-80
2022/07/17 03:54:31;;;;;;;8.15;4.20;;;;;;;21.21;68.94;95191.16;4974171;28;20711;-81
2022/07/17 03:57:29;;;;;;;5.80;4.45;;;;;;;21.17;68.35;95196.19;4973726;28;20252;-81
2022/07/17 03:59:57;;;;;;;12.85;4.80;;;;;;;21.19;69.78;95203.84;4966231;28;20209;-80
2022/07/17 04:02:36;;;;;;;7.90;4.65;;;;;;;21.26;68.09;95226.31;4974277;28;20279;-81
2022/07/17 04:05:11;;;;;;;8.27;4.45;;;;;;;21.29;67.97;95217.06;4955758;28;20239;-81
2022/07/17 04:07:46;;;;;;;11.98;4.57;;;;;;;21.31;68.06;95225.50;4956172;28;20260;-84
2022/07/17 04:10:37;;;;;;;;;;;;;;;;;;;;;
2022/07/17 04:13:14;;;;;;;7.00;4.10;;;;;;;21.07;64.80;95190.91;4974174;28;20603;-83
2022/07/17 04:15:52;;;;;;;7.25;4.30;;;;;;;21.19;65.33;95212.56;4969971;28;20587;-83
2022/07/17 04:18:35;;;;;;;8.68;4.18;;;;;;;21.00;63.20;95182.50;4954756;29;20208;-83
2022/07/17 04:21:17;;;;;;;6.53;4.05;;;;;;;21.04;64.31;95196.72;4954704;29;20181;-83
2022/07/17 04:23:48;;;;;;;6.57;3.95;;;;;;;21.44;63.52;95243.44;4961707;28;20259;-83
2022/07/17 04:26:28;;;;;;;7.28;4.10;;;;;;;21.29;63.67;95241.66;4967271;28;20236;-84
2022/07/17 04:29:02;;;;;;;6.15;3.80;;;;;;;21.27;62.98;95242.97;4956510;28;20197;-84
2022/07/17 04:31:33;;;;;;;4.13;3.53;;;;;;;21.31;62.92;95233.44;4954855;29;20205;-84
2022/07/17 04:34:10;;;;;;;9.40;3.90;;;;;;;21.42;63.79;95240.25;4961895;28;20284;-80
2022/07/17 04:36:40;;;;;;;9.82;4.10;;;;;;;21.39;63.23;95238.94;4973143;28;20193;-81
2022/07/17 04:39:17;;;;;;;10.32;3.83;;;;;;;21.55;62.33;95250.28;4972514;28;20217;-80
2022/07/17 04:41:48;;;;;;;7.05;3.90;;;;;;;21.47;62.60;95221.75;4959600;28;20203;-79
2022/07/17 04:44:22;;;;;;;7.65;4.13;;;;;;;21.69;62.21;95247.81;4965519;28;20236;-80
2022/07/17 04:46:56;;;;;;;7.00;3.78;;;;;;;21.68;61.66;95238.28;4972818;28;20275;-86
2022/07/17 04:49:27;;;;;;;7.55;4.05;;;;;;;21.88;62.17;95260.19;4967043;28;20260;-86
2022/07/17 04:52:02;;;;;;;7.93;3.72;;;;;;;21.66;62.06;95208.66;4954430;29;20178;-85
2022/07/17 04:54:42;;;;;;;7.90;3.60;;;;;;;22.03;62.63;95265.41;4947073;29;20200;-83
2022/07/17 04:57:18;;;;;;;6.03;4.20;;;;;;;22.09;61.59;95266.16;4969037;28;20263;-83
2022/07/17 05:00:08;;;;;;;4.20;3.70;;;;;;;22.10;61.20;95267.75;4964393;28;20624;-83
2022/07/17 05:02:45;;;;;;;5.85;4.10;;;;;;;22.03;60.44;95261.94;4960920;28;20205;-85
2022/07/17 05:05:31;;;;;;;5.65;3.90;;;;;;;22.11;60.35;95281.78;4973313;28;20668;-85
2022/07/17 05:08:01;;;;;;;6.60;3.88;;;;;;;22.15;60.68;95280.94;4969144;28;20228;-85
2022/07/17 05:10:38;;;;;;;6.10;4.10;;;;;;;22.11;60.78;95277.25;4953475;29;20193;-83
2022/07/17 05:13:05;;;;;;;6.82;4.25;;;;;;;22.01;60.86;95259.59;4959064;28;20685;-84
2022/07/17 05:15:41;;;;;;;8.75;4.30;;;;;;;22.17;60.58;95272.72;4967667;28;20237;-80
2022/07/17 05:18:12;;;;;;;6.70;4.47;;;;;;;22.11;60.00;95269.31;4959637;28;20203;-80
2022/07/17 05:20:59;;;;;;;11.20;4.10;;;;;;;22.22;57.21;95270.06;4966501;28;20205;-80
2022/07/17 05:23:32;;;;;;;8.25;3.97;;;;;;;22.16;56.26;95266.66;4962056;28;20265;-80
2022/07/17 05:26:13;;;;;;;6.88;3.90;;;;;;;22.28;56.52;95276.91;4968811;28;20205;-81
2022/07/17 05:28:47;;;;;;;7.60;3.90;;;;;;;22.32;56.34;95276.06;4971620;28;20625;-80
2022/07/17 05:31:15;;;;;;;3.85;3.42;;;;;;;22.40;56.58;95280.75;4966736;28;20210;-80
2022/07/17 05:34:00;;;;;;;5.80;3.60;;;;;;;22.31;55.51;95277.13;4966088;28;20208;-80
2022/07/17 05:36:44;;;;;;;6.75;3.40;;;;;;;22.30;55.00;95278.22;4971608;28;20193;-83
2022/07/17 05:39:32;;;;;;;5.28;3.72;;;;;;;22.17;54.47;95252.31;4953466;29;20288;-84
2022/07/17 05:42:24;;;;;;;4.43;3.65;;;;;;;22.40;53.05;95277.31;4954188;29;20206;-82
2022/07/17 05:44:52;;;;;;;6.32;3.55;;;;;;;22.39;52.91;95276.56;4935637;28;20287;-80
2022/07/17 05:47:32;;;;;;;10.43;3.53;;;;;;;22.08;51.71;95227.50;4963882;28;20267;-78
2022/07/17 05:50:27;;;;;;;9.50;3.40;;;;;;;22.50;51.20;95286.00;4959011;28;20690;-80
2022/07/17 05:53:47;;;;;;;6.20;3.42;;;;;;;22.42;51.51;95254.00;4960614;28;20201;-80
2022/07/17 05:59:56;;;;;;;6.38;3.58;;;;;;;23.08;49.68;95278.91;4956273;28;20745;-78
2022/07/17 06:02:42;;;;;;;6.30;3.42;;;;;;;22.96;49.01;95254.63;4963164;28;20211;-80
2022/07/17 06:05:49;;;;;;;7.60;3.50;;;;;;;22.81;48.04;95241.50;4959165;28;20200;-80
2022/07/17 06:11:20;;;;;;;6.20;3.40;;;;;;;22.92;49.16;95242.19;4953768;28;20235;-79
2022/07/17 06:14:13;;;;;;;9.73;3.88;;;;;;;23.30;48.84;95286.34;4960575;28;20668;-80
2022/07/17 06:16:46;;;;;;;5.50;3.58;;;;;;;23.37;48.99;95286.81;4960661;28;20239;-76
2022/07/17 06:19:17;;;;;;;8.43;3.72;;;;;;;23.18;48.88;95262.06;4963310;28;20220;-76
2022/07/17 06:21:51;;;;;;;5.75;3.63;;;;;;;23.41;48.34;95287.06;4956997;28;20210;-75
2022/07/17 06:24:21;;;;;;;7.10;4.07;;;;;;;23.48;48.03;95290.19;4956672;28;20213;-76
2022/07/17 06:26:48;;;;;;;4.63;3.03;;;;;;;23.47;49.13;95283.28;4954440;28;20217;-75
2022/07/17 06:29:16;;;;;;;9.95;4.75;;;;;;;23.60;48.61;95301.19;4964518;28;20203;-75
2022/07/17 06:31:43;;;;;;;9.52;3.85;;;;;;;23.72;48.56;95305.00;4963694;28;20287;-76
2022/07/17 06:34:10;;;;;;;6.35;3.85;;;;;;;23.86;47.50;95304.34;4964548;28;20204;-75
2022/07/17 06:36:37;;;;;;;7.47;3.70;;;;;;;23.97;47.91;95306.56;4966716;28;20201;-75
2022/07/17 06:39:04;;;;;;;3.33;2.92;;;;;;;24.01;49.21;95301.50;4969007;28;20199;-87
2022/07/17 06:41:31;;;;;;;5.95;3.15;;;;;;;24.01;50.04;95302.25;4965713;28;20646;-79
2022/07/17 06:43:58;;;;;;;5.95;3.70;;;;;;;24.02;47.85;95305.72;4975036;28;20294;-79
2022/07/17 06:46:26;;;;;;;5.35;3.67;;;;;;;23.94;47.16;95301.84;4961065;28;20201;-79
2022/07/17 06:48:53;;;;;;;6.85;3.72;;;;;;;24.01;49.76;95299.59;4959455;28;20641;-79
2022/07/17 06:51:20;;;;;;;6.32;3.47;;;;;;;24.06;51.73;95304.88;4956132;28;20209;-79
2022/07/17 06:53:47;;;;;;;4.50;3.55;;;;;;;24.18;50.18;95304.47;4957480;28;20210;-79
2022/07/17 06:56:14;;;;;;;5.43;3.50;;;;;;;24.26;49.32;95299.31;4959042;28;20201;-78
2022/07/17 06:58:40;;;;;;;6.18;3.60;;;;;;;24.46;47.18;95308.84;4968077;28;20611;-78
2022/07/17 07:01:07;;;;;;;6.35;3.80;;;;;;;24.47;45.90;95315.75;4973306;28;20212;-79
2022/07/17 07:03:36;;;;;;;5.30;3.70;;;;;;;24.45;46.03;95309.13;4972268;28;20655;-79
2022/07/17 07:06:03;;;;;;;4.18;3.72;;;;;;;24.42;46.18;95313.16;4965381;28;20205;-79
2022/07/17 07:08:30;;;;;;;5.22;3.58;;;;;;;24.39;46.06;95318.22;4967527;28;20222;-81
2022/07/17 07:10:57;;;;;;;5.40;3.53;;;;;;;24.33;45.95;95311.44;4964320;28;20211;-81
2022/07/17 07:13:24;;;;;;;5.70;3.60;;;;;;;24.31;47.26;95313.56;4961943;28;20204;-79
2022/07/17 07:15:51;;;;;;;5.40;3.65;;;;;;;24.27;46.57;95313.38;4963676;28;20594;-82
2022/07/17 07:18:18;;;;;;;6.22;3.78;;;;;;;24.27;46.14;95310.72;4959838;28;20225;-78
2022/07/17 07:20:46;;;;;;;7.70;4.05;;;;;;;24.25;46.87;95310.19;4962759;28;20200;-78
2022/07/17 07:23:13;;;;;;;5.78;4.10;;;;;;;24.43;49.14;95306.75;4964239;28;20201;-77
2022/07/17 07:25:40;;;;;;;6.72;3.95;;;;;;;24.42;47.11;95315.00;4962867;28;20581;-80
2022/07/17 07:28:08;;;;;;;8.48;4.07;;;;;;;24.51;48.87;95316.72;4961902;28;20236;-80
2022/07/17 07:30:35;;;;;;;5.47;3.83;;;;;;;24.63;49.33;95310.97;4962004;28;20201;-78
2022/07/17 07:33:02;;;;;;;7.68;3.90;;;;;;;24.81;50.36;95320.84;4963829;28;20202;-82
2022/07/17 07:35:29;;;;;;;8.35;3.60;;;;;;;24.89;46.32;95316.72;4962365;28;20287;-81
2022/07/17 07:37:57;;;;;;;7.38;3.63;;;;;;;24.97;45.70;95318.69;4971133;28;20260;-77
2022/07/17 07:40:24;;;;;;;10.82;3.80;;;;;;;25.07;44.41;95322.00;4961389;28;20236;-76
2022/07/17 07:42:51;;;;;;;4.72;3.35;;;;;;;25.05;43.74;95324.13;4974263;28;20209;-76
2022/07/17 07:45:18;;;;;;;6.35;3.70;;;;;;;24.92;44.00;95324.09;4966660;28;20229;-77
2022/07/17 07:47:47;;;;;;;4.10;3.45;;;;;;;24.81;44.03;95324.28;4968329;28;20248;-77
2022/07/17 07:50:15;;;;;;;7.35;3.72;;;;;;;24.72;44.57;95317.22;4966303;28;20309;-77
2022/07/17 07:52:42;;;;;;;4.43;3.50;;;;;;;24.67;44.28;95314.66;4969099;28;20264;-77
2022/07/17 07:55:12;;;;;;;7.97;3.55;;;;;;;24.62;45.55;95312.03;4963035;28;20200;-77
2022/07/17 07:57:39;;;;;;;6.68;3.75;;;;;;;24.59;45.59;95313.41;4963981;28;20197;-77
2022/07/17 08:00:07;;;;;;;5.78;3.50;;;;;;;24.62;45.56;95315.50;4962717;28;20588;-77
2022/07/17 08:02:34;;;;;;;5.05;3.88;;;;;;;24.67;45.50;95319.97;4964554;28;20530;-80
2022/07/17 08:05:01;;;;;;;5.50;3.90;;;;;;;24.59;44.86;95313.41;4958397;28;21099;-77
2022/07/17 08:07:29;;;;;;;4.85;3.53;;;;;;;24.51;44.02;95327.38;4961923;28;20228;-77
2022/07/17 08:09:56;;;;;;;6.20;3.60;;;;;;;24.56;44.08;95324.63;4960516;28;20232;-76
2022/07/17 08:12:24;;;;;;;7.38;3.67;;;;;;;24.57;44.80;95328.88;4953681;28;20224;-77
2022/07/17 08:14:51;;;;;;;6.65;3.78;;;;;;;24.69;43.83;95323.91;4957850;28;20730;-77
2022/07/17 08:17:19;;;;;;;6.45;3.50;;;;;;;24.81;43.81;95323.50;4953041;28;20205;-75
2022/07/17 08:19:46;;;;;;;7.25;3.95;;;;;;;24.88;43.44;95331.88;4952958;28;20212;-77
2022/07/17 08:22:13;;;;;;;6.63;3.47;;;;;;;24.92;44.90;95329.44;4953471;28;20600;-77
2022/07/17 08:24:40;;;;;;;5.15;3.17;;;;;;;24.99;44.42;95322.66;4954252;28;20216;-77
2022/07/17 08:27:07;;;;;;;4.90;3.33;;;;;;;25.11;44.43;95320.31;4958775;28;20225;-78
2022/07/17 08:29:35;;;;;;;6.57;3.50;;;;;;;25.25;43.25;95331.78;4953603;28;20213;-78
2022/07/17 08:32:02;;;;;;;4.82;3.80;;;;;;;25.26;42.97;95329.91;4954002;28;20638;-76
2022/07/17 08:34:31;;;;;;;4.53;3.47;;;;;;;25.22;45.17;95324.38;4970411;28;20236;-78
2022/07/17 08:36:58;;;;;;;6.28;3.55;;;;;;;25.29;44.13;95326.66;4954639;28;20260;-77
2022/07/17 08:39:24;;;;;;;5.25;3.45;;;;;;;25.35;43.67;95323.63;4952380;28;20217;-77
2022/07/17 08:41:52;;;;;;;5.53;3.60;;;;;;;25.38;44.21;95328.34;4952513;28;20673;-77
2022/07/17 08:44:18;;;;;;;4.57;3.13;;;;;;;25.48;46.34;95324.75;4958169;28;20209;-77
2022/07/17 08:46:47;;;;;;;5.35;3.90;;;;;;;25.61;44.26;95320.50;4960003;28;20205;-77
2022/07/17 08:49:15;;;;;;;7.53;4.38;;;;;;;25.76;42.84;95321.00;4972473;28;20227;-77
2022/07/17 08:51:43;;;;;;;4.20;3.67;;;;;;;25.77;41.61;95319.91;4972805;28;20724;-76
2022/07/17 08:54:10;;;;;;;8.13;3.50;;;;;;;25.79;41.03;95315.09;4972309;28;20239;-78
2022/07/17 08:56:36;;;;;;;6.35;3.53;;;;;;;25.75;41.27;95314.09;4972339;28;20616;-79
2022/07/17 08:59:03;;;;;;;5.35;3.20;;;;;;;25.77;42.83;95313.81;4972518;28;20201;-77
2022/07/17 09:01:30;;;;;;;7.00;3.30;;;;;;;25.93;44.68;95315.06;4965822;28;20216;-79
2022/07/17 09:04:05;;;;;;;5.40;3.70;;;;;;;26.03;43.84;95308.75;4971951;28;20204;-76
2022/07/17 09:06:33;;;;;;;5.90;3.22;;;;;;;26.14;43.62;95302.13;4972605;28;20659;-78
2022/07/17 09:09:05;;;;;;;4.10;3.70;;;;;;;26.26;43.59;95297.84;4965824;28;20229;-82
2022/07/17 09:11:43;;;;;;;5.45;3.47;;;;;;;26.40;42.30;95306.63;4953365;28;20209;-77
2022/07/17 09:14:10;;;;;;;4.43;3.10;;;;;;;26.41;41.24;95312.72;4961087;28;20268;-78
2022/07/17 09:16:48;;;;;;;6.25;3.47;;;;;;;26.55;42.73;95302.81;4971793;28;20240;-76
2022/07/17 09:19:27;;;;;;;3.90;3.35;;;;;;;26.64;42.18;95306.31;4972106;28;20196;-78
2022/07/17 09:22:04;;;;;;;3.38;3.03;;;;;;;26.61;42.02;95306.16;4971863;28;20231;-77
2022/07/17 09:24:41;;;;;;;7.75;3.40;;;;;;;26.64;40.48;95309.00;4972055;28;20196;-75
2022/07/17 09:27:08;;;;;;;6.88;3.65;;;;;;;26.65;40.58;95307.13;4958852;28;21038;-79
2022/07/17 09:29:34;;;;;;;3.95;3.55;;;;;;;26.69;40.74;95305.44;4965301;28;20212;-78
2022/07/17 09:32:01;;;;;;;6.00;3.53;;;;;;;26.78;41.06;95299.03;4960020;28;20236;-78
2022/07/17 09:34:29;;;;;;;5.38;3.85;;;;;;;26.89;41.57;95304.97;4971897;28;20217;-77
2022/07/17 09:37:01;;;;;;;4.78;3.45;;;;;;;27.00;40.70;95306.28;4952887;28;20205;-75
2022/07/17 09:39:36;;;;;;;7.80;3.50;;;;;;;27.02;40.25;95310.22;4965994;28;20236;-75
2022/07/17 09:42:03;;;;;;;4.13;3.45;;;;;;;27.06;39.38;95307.75;4972307;28;20200;-75
2022/07/17 09:44:30;;;;;;;4.70;3.35;;;;;;;27.20;39.03;95305.78;4970351;28;20698;-75
2022/07/17 09:46:57;;;;;;;4.35;3.30;;;;;;;27.31;40.05;95307.09;4952358;28;20228;-75
2022/07/17 09:49:27;;;;;;;7.68;3.42;;;;;;;27.36;40.41;95311.53;4952450;28;20225;-75
2022/07/17 09:51:55;;;;;;;8.50;3.17;;;;;;;27.47;38.49;95312.84;4951021;28;20689;-75
2022/07/17 09:54:23;;;;;;;6.30;2.90;;;;;;;27.51;37.06;95301.22;4951392;28;20205;-75
2022/07/17 09:56:51;;;;;;;4.30;3.10;;;;;;;27.65;38.76;95300.34;4951736;28;20205;-75
2022/07/17 09:59:19;;;;;;;6.05;3.33;;;;;;;27.74;38.87;95304.63;4950837;28;20558;-75
2022/07/17 10:01:49;;;;;;;6.55;3.17;;;;;;;27.87;37.65;95303.72;4951016;28;20224;-75
2022/07/17 10:04:16;;;;;;;7.20;3.30;;;;;;;28.03;38.08;95312.06;4951490;28;20240;-75
2022/07/17 10:06:44;;;;;;;4.97;3.00;;;;;;;28.12;37.22;95316.38;4951796;28;20209;-75
2022/07/17 10:09:14;;;;;;;3.85;2.72;;;;;;;28.24;36.69;95310.41;4951799;28;20236;-75
2022/07/17 10:11:42;;;;;;;10.77;3.40;;;;;;;28.34;37.27;95306.66;4951675;28;20205;-75
2022/07/17 10:14:12;;;;;;;4.47;3.33;;;;;;;28.44;36.50;95307.13;4954127;28;20235;-76
2022/07/17 10:16:39;;;;;;;4.05;2.92;;;;;;;28.59;37.06;95305.88;4951828;28;20618;-75
2022/07/17 10:19:16;;;;;;;4.57;2.88;;;;;;;28.62;37.14;95305.25;4952406;28;20256;-75
2022/07/17 10:21:53;;;;;;;5.45;3.47;;;;;;;28.50;36.55;95300.53;4952611;28;20212;-75
2022/07/17 10:24:22;;;;;;;4.55;3.33;;;;;;;28.56;36.78;95298.47;4963020;28;20670;-75
2022/07/17 10:26:49;;;;;;;6.43;3.28;;;;;;;28.73;34.97;95297.72;4971697;28;20208;-75
2022/07/17 10:29:35;;;;;;;5.05;3.20;;;;;;;28.82;34.98;95287.78;4970527;28;20236;-75
2022/07/17 10:32:07;;;;;;;4.57;3.30;;;;;;;28.86;34.27;95291.41;4971748;28;20212;-75
2022/07/17 10:34:39;;;;;;;4.68;3.22;;;;;;;29.02;34.45;95295.16;4971370;28;20212;-75
2022/07/17 10:37:22;;;;;;;4.22;3.17;;;;;;;28.92;35.26;95292.81;4971324;28;20215;-75
2022/07/17 10:40:05;;;;;;;3.70;3.33;;;;;;;29.01;36.06;95280.97;4971330;28;20240;-75
2022/07/17 10:42:40;;;;;;;6.28;3.13;;;;;;;29.00;34.93;95284.78;4971709;28;20205;-75
2022/07/17 10:45:09;;;;;;;5.38;3.00;;;;;;;29.31;35.08;95289.91;4970451;28;20603;-75
2022/07/17 10:47:47;;;;;;;7.22;3.50;;;;;;;29.53;34.64;95296.91;4971049;28;20212;-74
2022/07/17 10:50:14;;;;;;;7.57;3.47;;;;;;;29.68;33.71;95291.81;4971230;28;20644;-74
2022/07/17 10:52:42;;;;;;;7.18;3.63;;;;;;;29.83;33.93;95287.03;4971231;28;20233;-74
2022/07/17 10:55:21;;;;;;;3.42;3.05;;;;;;;30.28;33.91;95282.63;4971044;28;20293;-74
2022/07/17 10:57:49;;;;;;;6.70;3.30;;;;;;;30.58;33.87;95275.34;4971473;28;20636;-75
2022/07/17 11:00:16;;;;;;;3.22;2.85;;;;;;;30.85;32.90;95282.84;4970648;28;20205;-75
2022/07/17 11:02:43;;;;;;;3.33;3.03;;;;;;;31.08;32.29;95285.97;4971040;28;20208;-75
2022/07/17 11:05:12;;;;;;;4.10;3.20;;;;;;;31.21;32.41;95287.53;4971163;28;20215;-75
2022/07/17 11:07:52;;;;;;;4.28;2.83;;;;;;;31.37;31.45;95288.47;4973763;28;20671;-80
2022/07/17 11:10:21;;;;;;;3.88;2.80;;;;;;;30.95;33.23;95278.97;4973723;28;20652;-76
2022/07/17 11:12:49;;;;;;;8.45;2.92;;;;;;;30.72;32.50;95279.31;4966660;28;20201;-76
2022/07/17 11:15:16;;;;;;;5.68;3.10;;;;;;;30.98;33.30;95272.94;4961894;28;20249;-77
2022/07/17 11:17:48;;;;;;;5.18;2.90;;;;;;;31.22;32.72;95271.09;4955037;28;20201;-74
2022/07/17 11:20:18;;;;;;;3.75;2.78;;;;;;;31.53;31.52;95270.59;4959319;28;20209;-77
2022/07/17 11:22:46;;;;;;;9.27;3.00;;;;;;;31.82;32.41;95283.03;4973885;28;20518;-76
2022/07/17 11:25:13;;;;;;;5.70;3.00;;;;;;;32.10;30.93;95275.06;4962895;28;20208;-77
2022/07/17 11:27:41;;;;;;;3.38;2.85;;;;;;;32.22;30.87;95275.84;4972688;28;20635;-76
2022/07/17 11:30:15;;;;;;;4.10;2.90;;;;;;;32.56;30.90;95271.84;4973806;28;20212;-78
2022/07/17 11:32:42;;;;;;;9.20;3.17;;;;;;;32.45;31.27;95273.44;4974276;28;20204;-76
2022/07/17 11:35:20;;;;;;;4.90;3.05;;;;;;;32.27;30.85;95270.22;4973528;28;20211;-75
2022/07/17 11:37:50;;;;;;;5.65;3.00;;;;;;;32.22;31.32;95269.69;4974135;28;20196;-75
2022/07/17 11:40:17;;;;;;;3.42;2.60;;;;;;;31.96;30.30;95270.81;4973976;28;20295;-75
2022/07/17 11:42:46;;;;;;;5.32;2.90;;;;;;;31.47;30.43;95266.53;4973684;28;20587;-75
2022/07/17 11:45:13;;;;;;;7.55;2.90;;;;;;;31.29;30.78;95257.88;4966280;28;20231;-75
2022/07/17 11:47:40;;;;;;;6.55;3.10;;;;;;;31.09;30.58;95258.75;4968125;28;20656;-75
2022/07/17 11:50:12;;;;;;;6.13;3.15;;;;;;;31.00;32.25;95255.38;4973583;28;20651;-75
2022/07/17 11:52:45;;;;;;;3.65;2.78;;;;;;;30.94;31.79;95251.31;4973403;28;20215;-75
2022/07/17 11:55:12;;;;;;;2.92;2.63;;;;;;;30.93;31.54;95244.38;4973371;28;20209;-75
2022/07/17 11:57:48;;;;;;;3.10;2.80;;;;;;;31.31;32.44;95252.19;4967612;28;20198;-86
2022/07/17 12:00:17;;;;;;;3.00;2.70;;;;;;;31.71;31.62;95252.34;4966598;28;20216;-76
2022/07/17 12:02:45;;;;;;;4.15;2.88;;;;;;;31.90;31.42;95249.84;4972756;28;20213;-75
2022/07/17 12:05:11;;;;;;;3.63;2.90;;;;;;;32.32;31.54;95250.38;4972951;28;20665;-75
2022/07/17 12:07:44;;;;;;;4.38;2.70;;;;;;;32.63;30.53;95250.50;4969781;28;20259;-74
2022/07/17 12:10:18;;;;;;;3.55;2.90;;;;;;;32.73;30.52;95243.88;4969924;28;20228;-76
2022/07/17 12:12:57;;;;;;;5.43;3.20;;;;;;;33.00;30.17;95246.50;4973078;28;20722;-76
2022/07/17 12:15:36;;;;;;;3.45;3.05;;;;;;;32.77;30.10;95250.13;4960707;28;20708;-76
2022/07/17 12:18:04;;;;;;;3.53;2.60;;;;;;;32.35;31.16;95249.69;4966634;28;20557;-76
2022/07/17 12:20:42;;;;;;;4.45;3.00;;;;;;;32.41;31.09;95243.72;4973159;28;20608;-76
2022/07/17 12:23:10;;;;;;;4.03;2.97;;;;;;;32.67;29.91;95245.22;4964764;28;20201;-76
2022/07/17 12:25:36;;;;;;;4.05;3.03;;;;;;;32.84;30.62;95247.63;4953793;28;20310;-76